createdAt,value
2022-10-11T00:01:38.320Z,19.88
2022-10-11T00:04:04.838Z,19.45
2022-10-11T00:06:31.320Z,20.97
2022-10-11T00:08:57.765Z,19.23
2022-10-11T00:11:24.202Z,19.52
2022-10-11T00:13:50.633Z,22.88
2022-10-11T00:16:17.045Z,22.85
2022-10-11T00:18:43.438Z,22.80
2022-10-11T00:21:12.857Z,19.48
2022-10-11T00:23:39.958Z,17.13
2022-10-11T00:26:08.293Z,19.75
2022-10-11T00:28:36.636Z,18.38
2022-10-11T00:31:07.609Z,17.97
2022-10-11T00:33:34.518Z,19.88
2022-10-11T00:36:01.210Z,19.13
2022-10-11T00:38:27.627Z,22.50
2022-10-11T00:40:54.018Z,18.25
2022-10-11T00:43:23.178Z,22.13
2022-10-11T00:45:57.719Z,21.20
2022-10-11T00:48:39.756Z,22.23
2022-10-11T00:51:15.448Z,24.17
2022-10-11T00:53:42.458Z,17.98
2022-10-11T00:56:24.807Z,18.40
2022-10-11T00:58:52.379Z,21.17
2022-10-11T01:01:18.916Z,19.40
2022-10-11T01:03:46.142Z,16.27
2022-10-11T01:06:12.609Z,16.08
2022-10-11T01:08:39.318Z,19.80
2022-10-11T01:11:06.401Z,20.33
2022-10-11T01:13:40.409Z,19.73
2022-10-11T01:16:15.743Z,23.35
2022-10-11T01:19:35.570Z,23.58
2022-10-11T01:22:14.137Z,19.97
2022-10-11T01:25:00.797Z,20.95
2022-10-11T01:27:37.857Z,17.75
2022-10-11T01:30:22.409Z,22.60
2022-10-11T01:33:20.419Z,19.33
2022-10-11T01:36:05.264Z,21.47
2022-10-11T01:38:44.758Z,19.85
2022-10-11T01:41:16.495Z,20.67
2022-10-11T01:43:44.020Z,18.52
2022-10-11T01:46:11.014Z,20.02
2022-10-11T01:48:55.017Z,18.30
2022-10-11T01:51:24.285Z,21.13
2022-10-11T01:54:09.419Z,19.88
2022-10-11T01:57:15.003Z,16.63
2022-10-11T02:00:03.017Z,17.20
2022-10-11T02:02:51.465Z,16.00
2022-10-11T02:05:43.974Z,15.38
2022-10-11T02:08:33.385Z,17.05
2022-10-11T02:11:08.734Z,20.30
2022-10-11T02:13:47.177Z,22.10
2022-10-11T02:16:18.746Z,18.80
2022-10-11T02:18:49.940Z,16.80
2022-10-11T02:21:20.166Z,16.08
2022-10-11T02:24:02.935Z,18.02
2022-10-11T02:26:31.993Z,18.10
2022-10-11T02:29:00.671Z,17.90
2022-10-11T02:31:30.075Z,20.85
2022-10-11T02:34:18.981Z,16.30
2022-10-11T02:37:02.822Z,18.95
2022-10-11T02:39:34.420Z,20.92
2022-10-11T02:42:04.741Z,20.67
2022-10-11T02:44:37.285Z,20.33
2022-10-11T02:47:04.838Z,20.33
2022-10-11T02:49:31.903Z,18.38
2022-10-11T02:51:58.863Z,15.52
2022-10-11T02:54:26.502Z,17.30
2022-10-11T02:56:52.963Z,16.50
2022-10-11T02:59:19.336Z,19.83
2022-10-11T03:01:45.744Z,17.95
2022-10-11T03:04:12.431Z,16.65
2022-10-11T03:06:38.845Z,16.77
2022-10-11T03:09:05.209Z,17.77
2022-10-11T03:11:31.606Z,15.45
2022-10-11T03:13:58.062Z,17.63
2022-10-11T03:16:24.521Z,18.42
2022-10-11T03:18:51.175Z,15.03
2022-10-11T03:21:18.544Z,17.50
2022-10-11T03:23:44.900Z,21.52
2022-10-11T03:26:11.264Z,19.92
2022-10-11T03:28:37.759Z,16.45
2022-10-11T03:31:04.199Z,18.20
2022-10-11T03:33:30.596Z,15.70
2022-10-11T03:35:57.009Z,16.48
2022-10-11T03:38:23.468Z,15.80
2022-10-11T03:40:49.861Z,16.13
2022-10-11T03:43:17.058Z,21.13
2022-10-11T03:45:43.777Z,16.10
2022-10-11T03:48:11.272Z,17.60
2022-10-11T03:50:38.329Z,16.90
2022-10-11T03:53:06.240Z,18.10
2022-10-11T03:55:32.714Z,17.13
2022-10-11T03:57:59.119Z,22.27
2022-10-11T04:00:25.549Z,13.30
2022-10-11T04:02:51.976Z,18.85
2022-10-11T04:05:18.455Z,15.40
2022-10-11T04:07:44.871Z,14.30
2022-10-11T04:10:11.316Z,20.55
2022-10-11T04:12:37.875Z,14.82
2022-10-11T04:15:05.913Z,15.77
2022-10-11T04:17:32.334Z,16.52
2022-10-11T04:19:58.692Z,15.40
2022-10-11T04:22:25.093Z,18.80
2022-10-11T04:24:51.468Z,20.23
2022-10-11T04:27:17.872Z,15.25
2022-10-11T04:29:44.282Z,15.88
2022-10-11T04:32:10.674Z,17.23
2022-10-11T04:34:37.725Z,17.38
2022-10-11T04:37:04.140Z,16.77
2022-10-11T04:39:30.603Z,17.17
2022-10-11T04:41:57.008Z,18.15
2022-10-11T04:44:23.424Z,22.40
2022-10-11T04:46:49.848Z,22.02
2022-10-11T04:49:16.305Z,19.17
2022-10-11T04:51:42.765Z,16.23
2022-10-11T04:54:09.188Z,19.15
2022-10-11T04:56:35.621Z,19.53
2022-10-11T04:59:02.050Z,21.80
2022-10-11T05:01:28.683Z,17.63
2022-10-11T05:03:55.053Z,18.20
2022-10-11T05:06:21.551Z,20.13
2022-10-11T05:08:47.909Z,21.07
2022-10-11T05:11:16.588Z,18.73
2022-10-11T05:13:44.377Z,19.02
2022-10-11T05:16:11.979Z,21.13
2022-10-11T05:18:39.900Z,19.83
2022-10-11T05:21:07.782Z,17.80
2022-10-11T05:23:35.798Z,21.80
2022-10-11T05:26:03.652Z,19.75
2022-10-11T05:28:30.694Z,15.52
2022-10-11T05:30:57.194Z,16.20
2022-10-11T05:33:23.773Z,21.03
2022-10-11T05:35:50.560Z,16.83
2022-10-11T05:38:17.382Z,14.65
2022-10-11T05:40:43.973Z,23.23
2022-10-11T05:43:10.422Z,16.85
2022-10-11T05:45:38.855Z,19.70
2022-10-11T05:48:05.578Z,19.50
2022-10-11T05:50:32.488Z,24.50
2022-10-11T05:52:58.915Z,24.10
2022-10-11T05:55:25.587Z,19.85
2022-10-11T05:57:56.557Z,25.47
2022-10-11T06:00:23.981Z,20.65
2022-10-11T06:02:50.545Z,23.92
2022-10-11T06:05:17.093Z,17.13
2022-10-11T06:07:43.785Z,22.88
2022-10-11T06:10:10.488Z,23.90
2022-10-11T06:12:36.858Z,24.02
2022-10-11T06:15:03.824Z,25.13
2022-10-11T06:17:30.276Z,20.45
2022-10-11T06:19:56.641Z,21.67
2022-10-11T06:22:23.066Z,21.00
2022-10-11T06:24:49.499Z,21.60
2022-10-11T06:27:15.885Z,33.70
2022-10-11T06:29:42.272Z,38.05
2022-10-11T06:32:08.706Z,33.90
2022-10-11T06:34:35.044Z,30.87
2022-10-11T06:37:01.442Z,32.30
2022-10-11T06:39:27.871Z,26.10
2022-10-11T06:41:54.278Z,33.65
2022-10-11T06:44:20.706Z,30.48
2022-10-11T06:46:47.125Z,30.97
2022-10-11T06:49:13.505Z,24.38
2022-10-11T06:51:39.998Z,27.38
2022-10-11T06:54:06.390Z,28.98
2022-10-11T06:56:32.863Z,26.10
2022-10-11T06:58:59.369Z,26.30
2022-10-11T07:01:27.248Z,20.50
2022-10-11T07:03:55.525Z,23.27
2022-10-11T07:06:25.240Z,22.20
2022-10-11T07:08:52.439Z,21.60
2022-10-11T07:11:21.435Z,24.23
2022-10-11T07:13:56.117Z,19.42
2022-10-11T07:16:23.328Z,16.33
2022-10-11T07:18:58.773Z,25.52
2022-10-11T07:21:27.746Z,17.83
2022-10-11T07:23:54.310Z,17.67
2022-10-11T07:26:20.739Z,21.70
2022-10-11T07:28:47.385Z,17.10
2022-10-11T07:31:20.294Z,27.42
2022-10-11T07:33:47.029Z,17.20
2022-10-11T07:36:15.570Z,16.37
2022-10-11T07:38:43.873Z,22.48
2022-10-11T07:41:11.181Z,17.40
2022-10-11T07:43:38.541Z,14.13
2022-10-11T07:46:06.009Z,17.00
2022-10-11T07:48:36.308Z,17.03
2022-10-11T07:51:06.771Z,17.20
2022-10-11T07:53:47.632Z,16.00
2022-10-11T07:56:17.200Z,14.43
2022-10-11T07:58:44.385Z,20.20
2022-10-11T08:01:11.618Z,22.03
2022-10-11T08:03:38.523Z,20.05
2022-10-11T08:06:08.255Z,17.45
2022-10-11T08:08:36.118Z,14.93
2022-10-11T08:11:02.732Z,16.35
2022-10-11T08:13:29.170Z,15.60
2022-10-11T08:15:56.114Z,15.27
2022-10-11T08:18:22.615Z,16.83
2022-10-11T08:20:49.092Z,15.60
2022-10-11T08:23:16.606Z,18.67
2022-10-11T08:25:47.567Z,13.80
2022-10-11T08:28:14.358Z,15.98
2022-10-11T08:30:40.826Z,12.35
2022-10-11T08:33:08.680Z,12.60
2022-10-11T08:35:36.149Z,13.35
2022-10-11T08:38:02.823Z,13.27
2022-10-11T08:40:34.278Z,15.70
2022-10-11T08:43:08.242Z,14.93
2022-10-11T08:45:49.063Z,20.13
2022-10-11T08:48:25.688Z,14.35
2022-10-11T08:50:54.366Z,12.57
2022-10-11T08:53:42.640Z,11.05
2022-10-11T08:56:13.467Z,14.48
2022-10-11T08:58:46.510Z,14.07
2022-10-11T09:01:22.029Z,14.60
2022-10-11T09:03:49.302Z,14.17
2022-10-11T09:06:37.063Z,12.90
2022-10-11T09:09:21.297Z,13.05
2022-10-11T09:11:56.869Z,11.63
2022-10-11T09:14:29.322Z,13.13
2022-10-11T09:17:35.365Z,17.30
2022-10-11T09:20:23.199Z,14.25
2022-10-11T09:23:07.953Z,13.30
2022-10-11T09:25:43.351Z,9.57
2022-10-11T09:28:21.899Z,11.35
2022-10-11T09:30:51.280Z,12.70
2022-10-11T09:33:36.379Z,12.35
2022-10-11T09:36:30.215Z,12.18
2022-10-11T09:39:06.780Z,9.70
2022-10-11T09:41:41.265Z,12.35
2022-10-11T09:44:08.162Z,10.73
2022-10-11T09:46:34.510Z,11.13
2022-10-11T09:49:03.996Z,12.35
2022-10-11T09:51:31.071Z,14.00
2022-10-11T09:54:00.652Z,12.30
2022-10-11T09:56:29.892Z,10.87
2022-10-11T09:59:08.502Z,10.65
2022-10-11T10:01:35.840Z,11.35
2022-10-11T10:04:12.286Z,11.57
2022-10-11T10:06:39.529Z,11.70
2022-10-11T10:09:20.338Z,10.87
2022-10-11T10:11:47.110Z,10.82
2022-10-11T10:14:29.181Z,12.48
2022-10-11T10:17:05.448Z,10.88
2022-10-11T10:19:53.887Z,11.55
2022-10-11T10:22:38.361Z,19.03
2022-10-11T10:25:06.214Z,8.82
2022-10-11T10:27:32.701Z,7.93
2022-10-11T10:30:07.859Z,14.98
2022-10-11T10:32:48.646Z,10.63
2022-10-11T10:35:51.133Z,11.50
2022-10-11T10:38:37.211Z,13.52
2022-10-11T10:41:11.531Z,12.43
2022-10-11T10:43:39.971Z,10.93
2022-10-11T10:46:06.620Z,11.77
2022-10-11T10:49:28.297Z,12.47
2022-10-11T10:52:06.747Z,9.10
2022-10-11T10:54:56.540Z,8.77
2022-10-11T10:57:53.414Z,10.40
2022-10-11T11:00:22.385Z,9.13
2022-10-11T11:02:57.302Z,11.50
2022-10-11T11:05:40.241Z,10.73
2022-10-11T11:08:40.653Z,8.48
2022-10-11T11:11:35.082Z,10.48
2022-10-11T11:14:14.649Z,7.93
2022-10-11T11:16:49.056Z,19.27
2022-10-11T11:19:15.373Z,8.80
2022-10-11T11:21:57.394Z,7.97
2022-10-11T11:24:23.718Z,12.43
2022-10-11T11:26:55.920Z,10.98
2022-10-11T11:29:55.563Z,8.77
2022-10-11T11:32:45.839Z,8.18
2022-10-11T11:35:28.472Z,8.52
2022-10-11T11:38:06.326Z,8.90
2022-10-11T11:40:39.396Z,7.13
2022-10-11T11:43:22.597Z,7.27
2022-10-11T11:45:56.393Z,9.45
2022-10-11T11:48:25.311Z,8.20
2022-10-11T11:51:08.903Z,9.27
2022-10-11T11:54:02.040Z,9.10
2022-10-11T11:56:46.466Z,7.50
2022-10-11T11:59:35.914Z,6.45
2022-10-11T12:02:21.199Z,8.40
2022-10-11T12:04:49.478Z,8.00
2022-10-11T12:07:19.061Z,8.68
2022-10-11T12:09:47.818Z,9.23
2022-10-11T12:12:31.889Z,8.85
2022-10-11T12:15:18.446Z,8.70
2022-10-11T12:17:56.678Z,10.18
2022-10-11T12:20:36.258Z,9.30
2022-10-11T12:23:25.260Z,9.27
2022-10-11T12:26:28.794Z,11.23
2022-10-11T12:29:16.825Z,8.40
2022-10-11T12:31:46.210Z,6.82
2022-10-11T12:34:20.243Z,7.40
2022-10-11T12:36:49.187Z,10.07
2022-10-11T12:39:18.617Z,7.63
2022-10-11T12:41:47.988Z,9.35
2022-10-11T12:44:29.791Z,8.55
2022-10-11T12:46:56.403Z,9.52
2022-10-11T12:49:31.954Z,9.20
2022-10-11T12:52:02.471Z,9.07
2022-10-11T12:54:53.321Z,10.07
2022-10-11T12:57:40.472Z,8.18
2022-10-11T13:00:24.949Z,11.07
2022-10-11T13:02:51.622Z,7.87
2022-10-11T13:05:24.106Z,8.82
2022-10-11T13:07:53.158Z,7.68
2022-10-11T13:10:25.963Z,7.57
2022-10-11T13:12:54.618Z,11.45
2022-10-11T13:15:22.627Z,8.50
2022-10-11T13:17:49.371Z,9.98
2022-10-11T13:20:18.471Z,8.25
2022-10-11T13:22:48.049Z,10.52
2022-10-11T13:25:18.152Z,9.07
2022-10-11T13:27:45.455Z,11.50
2022-10-11T13:30:19.451Z,9.38
2022-10-11T13:32:46.090Z,9.02
2022-10-11T13:35:48.335Z,7.47
2022-10-11T13:38:22.040Z,9.50
2022-10-11T13:40:51.126Z,7.23
2022-10-11T13:43:22.234Z,10.15
2022-10-11T13:45:48.785Z,7.32
2022-10-11T13:48:16.532Z,8.18
2022-10-11T13:50:43.175Z,8.77
2022-10-11T13:53:09.508Z,8.30
2022-10-11T13:55:46.856Z,7.18
2022-10-11T13:58:28.511Z,8.02
2022-10-11T14:00:57.584Z,9.98
2022-10-11T14:03:35.567Z,7.78
2022-10-11T14:06:02.198Z,9.07
2022-10-11T14:08:39.574Z,8.32
2022-10-11T14:11:07.546Z,8.10
2022-10-11T14:13:46.228Z,8.13
2022-10-11T14:16:32.887Z,8.50
2022-10-11T14:18:59.260Z,9.00
2022-10-11T14:21:28.897Z,8.10
2022-10-11T14:24:03.506Z,7.55
2022-10-11T14:26:39.570Z,8.23
2022-10-11T14:29:12.098Z,8.65
2022-10-11T14:31:42.147Z,9.60
2022-10-11T14:34:17.427Z,7.35
2022-10-11T14:36:43.842Z,7.28
2022-10-11T14:39:14.473Z,11.30
2022-10-11T14:41:40.951Z,9.15
2022-10-11T14:44:07.482Z,7.90
2022-10-11T14:46:34.459Z,8.23
2022-10-11T14:49:00.855Z,8.27
2022-10-11T14:51:34.321Z,8.85
2022-10-11T14:54:00.768Z,7.50
2022-10-11T14:56:27.234Z,8.10
2022-10-11T14:58:53.775Z,8.30
2022-10-11T15:01:20.234Z,9.40
2022-10-11T15:03:46.746Z,8.20
2022-10-11T15:06:25.234Z,9.30
2022-10-11T15:08:51.754Z,8.53
2022-10-11T15:11:20.223Z,9.88
2022-10-11T15:13:47.227Z,9.77
2022-10-11T15:16:16.230Z,9.73
2022-10-11T15:18:43.454Z,10.40
2022-10-11T15:21:13.930Z,7.47
2022-10-11T15:23:40.358Z,11.15
2022-10-11T15:26:07.300Z,8.43
2022-10-11T15:28:34.056Z,8.40
2022-10-11T15:31:00.719Z,10.00
2022-10-11T15:33:27.117Z,11.27
2022-10-11T15:35:53.562Z,9.57
2022-10-11T15:38:23.130Z,10.98
2022-10-11T15:40:50.112Z,10.85
2022-10-11T15:43:20.776Z,10.02
2022-10-11T15:45:50.091Z,11.97
2022-10-11T15:48:18.245Z,11.75
2022-10-11T15:50:45.497Z,9.55
2022-10-11T15:53:14.365Z,12.52
2022-10-11T15:55:46.455Z,15.35
2022-10-11T15:58:22.501Z,11.60
2022-10-11T16:00:52.426Z,13.43
2022-10-11T16:03:18.819Z,10.27
2022-10-11T16:05:45.247Z,11.90
2022-10-11T16:08:12.179Z,10.52
2022-10-11T16:10:39.422Z,11.37
2022-10-11T16:13:06.147Z,12.30
2022-10-11T16:15:32.662Z,9.02
2022-10-11T16:17:59.080Z,12.43
2022-10-11T16:20:25.550Z,10.13
2022-10-11T16:22:53.787Z,12.07
2022-10-11T16:25:20.902Z,11.80
2022-10-11T16:27:47.355Z,11.75
2022-10-11T16:30:15.556Z,11.07
2022-10-11T16:32:42.615Z,12.63
2022-10-11T16:35:10.968Z,13.00
2022-10-11T16:37:37.416Z,12.07
2022-10-11T16:40:06.070Z,14.68
2022-10-11T16:42:35.316Z,13.85
2022-10-11T16:45:01.739Z,13.50
2022-10-11T16:47:28.105Z,12.80
2022-10-11T16:49:54.485Z,13.23
2022-10-11T16:52:20.888Z,14.00
2022-10-11T16:54:47.818Z,12.30
2022-10-11T16:57:16.390Z,11.98
2022-10-11T16:59:42.920Z,11.73
2022-10-11T17:02:15.754Z,14.13
2022-10-11T17:04:42.311Z,16.10
2022-10-11T17:07:08.742Z,14.77
2022-10-11T17:09:35.305Z,12.98
2022-10-11T17:12:02.430Z,17.63
2022-10-11T17:14:28.874Z,18.88
2022-10-11T17:16:55.324Z,20.77
2022-10-11T17:19:21.726Z,23.33
2022-10-11T17:21:48.154Z,22.80
2022-10-11T17:24:14.578Z,24.87
2022-10-11T17:26:40.978Z,22.63
2022-10-11T17:29:07.438Z,23.08
2022-10-11T17:31:33.821Z,27.27
2022-10-11T17:34:00.919Z,27.52
2022-10-11T17:36:30.801Z,27.43
2022-10-11T17:38:59.113Z,29.10
2022-10-11T17:41:30.907Z,25.15
2022-10-11T17:43:58.370Z,23.75
2022-10-11T17:46:24.809Z,30.48
2022-10-11T17:48:52.735Z,30.37
2022-10-11T17:51:19.838Z,30.02
2022-10-11T17:53:47.515Z,47.00
2022-10-11T17:56:25.261Z,50.95
2022-10-11T17:58:55.855Z,126.82
2022-10-11T18:01:25.420Z,67.13
2022-10-11T18:03:57.637Z,54.88
2022-10-11T18:06:26.131Z,42.42
2022-10-11T18:08:52.614Z,33.78
2022-10-11T18:11:19.889Z,37.83
2022-10-11T18:13:51.611Z,32.90
2022-10-11T18:16:20.869Z,38.17
2022-10-11T18:18:47.500Z,35.20
2022-10-11T18:21:14.370Z,35.85
2022-10-11T18:23:40.761Z,35.65
2022-10-11T18:26:16.656Z,35.03
2022-10-11T18:28:44.145Z,37.38
2022-10-11T18:31:14.713Z,39.00
2022-10-11T18:33:41.710Z,35.47
2022-10-11T18:36:09.194Z,34.95
2022-10-11T18:38:36.750Z,32.93
2022-10-11T18:41:08.252Z,36.80
2022-10-11T18:43:35.432Z,36.28
2022-10-11T18:46:14.971Z,31.58
2022-10-11T18:48:45.823Z,30.45
2022-10-11T18:51:20.131Z,36.33
2022-10-11T18:53:47.874Z,31.90
2022-10-11T18:56:16.722Z,27.73
2022-10-11T18:58:44.173Z,31.20
2022-10-11T19:01:16.738Z,31.83
2022-10-11T19:03:47.919Z,31.23
2022-10-11T19:06:17.029Z,30.00
2022-10-11T19:08:49.430Z,31.48
2022-10-11T19:11:17.080Z,30.52
2022-10-11T19:13:43.805Z,27.73
2022-10-11T19:16:13.607Z,32.10
2022-10-11T19:18:44.192Z,32.80
2022-10-11T19:21:13.017Z,33.55
2022-10-11T19:23:42.346Z,31.63
2022-10-11T19:26:17.455Z,38.20
2022-10-11T19:28:44.319Z,31.87
2022-10-11T19:31:13.485Z,34.60
2022-10-11T19:33:39.929Z,30.83
2022-10-11T19:36:06.788Z,30.83
2022-10-11T19:38:35.152Z,34.83
2022-10-11T19:41:03.026Z,32.67
2022-10-11T19:43:29.532Z,36.92
2022-10-11T19:46:04.289Z,37.10
2022-10-11T19:48:31.657Z,35.38
2022-10-11T19:51:06.665Z,34.42
2022-10-11T19:53:33.195Z,35.87
2022-10-11T19:56:04.387Z,35.97
2022-10-11T19:58:31.131Z,35.90
2022-10-11T20:01:06.209Z,34.33
2022-10-11T20:03:33.322Z,37.00
2022-10-11T20:06:00.709Z,34.30
2022-10-11T20:08:28.048Z,40.05
2022-10-11T20:10:55.021Z,37.05
2022-10-11T20:13:21.523Z,37.25
2022-10-11T20:15:48.018Z,39.60
2022-10-11T20:18:14.418Z,44.03
2022-10-11T20:20:51.496Z,41.58
2022-10-11T20:23:18.405Z,36.60
2022-10-11T20:25:45.425Z,35.08
2022-10-11T20:28:12.544Z,34.17
2022-10-11T20:30:42.979Z,40.93
2022-10-11T20:33:09.451Z,40.13
2022-10-11T20:35:35.875Z,37.95
2022-10-11T20:38:02.298Z,37.47
2022-10-11T20:40:28.682Z,41.65
2022-10-11T20:42:55.082Z,51.50
2022-10-11T20:45:22.322Z,56.00
2022-10-11T20:47:48.763Z,49.25
2022-10-11T20:50:18.446Z,43.70
2022-10-11T20:52:47.589Z,41.72
2022-10-11T20:55:13.957Z,44.53
2022-10-11T20:57:40.325Z,43.58
2022-10-11T21:00:07.539Z,47.40
2022-10-11T21:02:34.140Z,46.38
2022-10-11T21:05:00.909Z,48.72
2022-10-11T21:07:27.279Z,49.93
2022-10-11T21:09:53.710Z,46.50
2022-10-11T21:12:20.108Z,49.45
2022-10-11T21:14:46.519Z,45.63
2022-10-11T21:17:12.926Z,48.20
2022-10-11T21:19:39.321Z,47.03
2022-10-11T21:22:05.705Z,48.88
2022-10-11T21:24:32.178Z,46.53
2022-10-11T21:27:00.882Z,48.58
2022-10-11T21:29:27.484Z,48.58
2022-10-11T21:31:53.853Z,48.90
2022-10-11T21:34:20.277Z,39.42
2022-10-11T21:36:46.663Z,38.00
2022-10-11T21:39:13.088Z,39.83
2022-10-11T21:41:39.557Z,42.90
2022-10-11T21:44:05.934Z,45.17
2022-10-11T21:47:01.090Z,52.30
2022-10-11T21:49:19.337Z,45.70
2022-10-11T21:51:45.817Z,45.85
2022-10-11T21:54:12.222Z,35.13
2022-10-11T21:56:38.601Z,37.30
2022-10-11T21:59:07.921Z,39.47
2022-10-11T22:01:37.630Z,40.72
2022-10-11T22:04:04.830Z,39.92
2022-10-11T22:06:31.448Z,38.05
2022-10-11T22:08:57.800Z,38.43
2022-10-11T22:11:24.191Z,38.40
2022-10-11T22:13:50.610Z,36.55
2022-10-11T22:16:17.003Z,37.50
2022-10-11T22:18:43.372Z,38.67
2022-10-11T22:21:13.002Z,35.17
2022-10-11T22:23:44.715Z,34.92
2022-10-11T22:26:14.096Z,33.05
2022-10-11T22:28:41.006Z,31.50
2022-10-11T22:31:09.634Z,31.42
2022-10-11T22:33:36.622Z,33.13
2022-10-11T22:36:06.353Z,35.33
2022-10-11T22:38:34.917Z,36.28
2022-10-11T22:41:01.305Z,41.55
2022-10-11T22:43:27.919Z,39.70
2022-10-11T22:45:54.351Z,37.73
2022-10-11T22:48:20.783Z,37.50
2022-10-11T22:50:47.349Z,41.53
2022-10-11T22:53:14.569Z,41.47
2022-10-11T22:55:41.114Z,40.88
2022-10-11T22:58:07.876Z,40.40
2022-10-11T23:00:34.865Z,39.92
2022-10-11T23:03:01.228Z,39.55
2022-10-11T23:05:27.705Z,38.88
2022-10-11T23:07:54.255Z,44.15
2022-10-11T23:10:20.775Z,41.13
2022-10-11T23:12:47.179Z,39.35
2022-10-11T23:15:13.636Z,36.10
2022-10-11T23:17:40.143Z,40.70
2022-10-11T23:20:07.084Z,30.65
2022-10-11T23:22:33.477Z,41.13
2022-10-11T23:24:59.920Z,38.13
2022-10-11T23:27:26.335Z,32.42
2022-10-11T23:29:52.682Z,35.15
2022-10-11T23:32:19.058Z,35.58
2022-10-11T23:34:45.424Z,36.03
2022-10-11T23:37:11.805Z,33.47
2022-10-11T23:39:38.221Z,34.88
2022-10-11T23:42:04.724Z,36.65
2022-10-11T23:44:31.112Z,38.53
2022-10-11T23:46:57.505Z,38.30
2022-10-11T23:49:23.945Z,34.53
2022-10-11T23:51:50.357Z,38.10
2022-10-11T23:54:16.727Z,29.33
2022-10-11T23:56:43.107Z,26.45
2022-10-11T23:59:09.528Z,28.67
